Makaweli, Hawaii
Current Conditions -  °F | °C
As of 9:56 AM on Sunday 21 Dec 2014 (Local Time) from PHBK Reporting Station
Clear Clear  
Wind Chill: 81°   Ceiling: Unl
Heat Index: 81°   Visibility: 10mi
Dew Point: 56°   Wind: 0mph
Humidity: 42%   Direction: NA
Pressure: 30.02"   Gusts: NA
Location:  21.9°N, 159.65°W
Report Text: PHBK 211956Z AUTO 00000KT 10SM CLR 27/13 A3002 RMK AO2 SLP169 T02720133 $
Loading
Personal Weather Stations






























Interactive Weather Map New forecast layout! Learn more

10-Day Weather Forecast

Advertisements
Track Severe Weather on mobile